DEKT2: Red River, Dekalb, TX

                                SHEF ID:       DEKT2     Red River near De Kalb, TX
STATION TYPE: Stream Gauge
Regulating: Stage = 23.70, Flow = 62933

PRECIP STAGE STAGE(2) RIV-FLOW BAT-LOAD
in ft ft cfs volt
Ccp-Rev Ccp-Rev Ccp-Rev Ccp-Rev Ccp-Rev
(America/Chicago)
04/30 00:00 0.00 12.82 ---- 13097 12.57
04/30 01:00 0.00 12.80 ---- 13033 12.57
04/30 02:00 0.00 12.76 ---- 12906 12.49
04/30 03:00 0.00 12.73 ---- 12811 12.49
04/30 04:00 0.00 12.69 ---- 12685 12.41
04/30 05:00 0.00 12.63 ---- 12497 12.49
04/30 06:00 0.00 12.59 ---- 12373 12.41
04/30 07:00 0.00 12.54 ---- 12218 12.41
04/30 08:00 0.00 12.49 ---- 12065 13.05
04/30 09:00 0.00 12.44 ---- 11912 13.29
04/30 10:00 0.00 12.44 ---- 11912 13.21
04/30 11:00 0.00 12.37 ---- 11700 13.29
04/30 12:00 0.00 12.35 ---- 11639 13.29
04/30 13:00 0.00 12.30 ---- 11489 13.29
04/30 14:00 0.00 12.27 ---- 11400 13.21
04/30 15:00 0.00 12.25 ---- 11340 13.29
04/30 16:00 0.00 12.21 ---- 11222 13.29
04/30 17:00 0.00 12.20 ---- 11192 13.37
04/30 18:00 0.00 12.22 ---- 11251 13.13
04/30 19:00 0.00 12.17 ---- 11104 13.05
04/30 20:00 0.00 12.16 ---- 11074 12.73
04/30 21:00 0.00 12.17 ---- 11104 12.65
04/30 22:00 0.00 12.18 ---- 11133 12.65
04/30 23:00 0.00 12.18 ---- 11133 12.65
Data processed at Fri 01May2026 04:30 GMT

NOTICE: If you are parsing this page

Please convert to using our Data API. Starting early 2026 we will be migrating to: https://water.usace.army.mil with modern pages rendered in JavaScript. When this migration completes you will no longer be able to scrape this page! CWMSDataAPI (CDA)

Timeseries IDs (TSIDs)

TSIDs used from left to right in the data table
DEKA.Precip-Inc.Total.1Hour.1Hour.Ccp-Rev
DEKA.Stage.Inst.1Hour.0.Ccp-Rev
DEKA.Stage-Alt.Inst.1Hour.0.Ccp-Rev
DEKA.Flow.Inst.1Hour.0.Ccp-Rev
DEKA.Volt-Battery Load.Inst.1Hour.0.Ccp-Rev

                            

All information presented herein is the property of the government of the United States of America and may be revised or deleted at any time without prior notice. Dissemination of this information without the expressed written consent of the Public Affairs Office, Tulsa District U.S. Army Corps of Engineers is strictly prohibited. These data are gathered electronically and, as presented, have NOT undergone any form of quality control. These data are NOT guaranteed to be valid or correct.